sensor_id;sensor_type;location;lat;lon;timestamp;temperature;humidity
23143;DHT22;11740;51.168;4.112;2023-10-08T00:01:10;16.40;1.00
23143;DHT22;11740;51.168;4.112;2023-10-08T00:03:45;16.30;1.00
23143;DHT22;11740;51.168;4.112;2023-10-08T00:06:20;16.30;1.00
23143;DHT22;11740;51.168;4.112;2023-10-08T00:08:49;16.20;1.00
23143;DHT22;11740;51.168;4.112;2023-10-08T00:11:18;16.20;1.00
23143;DHT22;11740;51.168;4.112;2023-10-08T00:13:45;16.20;1.00
23143;DHT22;11740;51.168;4.112;2023-10-08T00:16:15;16.20;1.00
23143;DHT22;11740;51.168;4.112;2023-10-08T00:18:46;16.20;1.00
23143;DHT22;11740;51.168;4.112;2023-10-08T00:21:18;16.10;1.00
23143;DHT22;11740;51.168;4.112;2023-10-08T00:23:46;16.00;1.00
23143;DHT22;11740;51.168;4.112;2023-10-08T00:26:20;16.10;1.00
23143;DHT22;11740;51.168;4.112;2023-10-08T00:29:00;16.00;1.00
23143;DHT22;11740;51.168;4.112;2023-10-08T00:31:33;16.00;1.00
23143;DHT22;11740;51.168;4.112;2023-10-08T00:34:08;16.00;1.00
23143;DHT22;11740;51.168;4.112;2023-10-08T00:36:39;16.00;1.00
23143;DHT22;11740;51.168;4.112;2023-10-08T00:39:09;15.90;1.00
23143;DHT22;11740;51.168;4.112;2023-10-08T00:42:00;15.80;1.00
23143;DHT22;11740;51.168;4.112;2023-10-08T00:44:31;15.80;1.00
23143;DHT22;11740;51.168;4.112;2023-10-08T00:47:03;15.70;1.00
23143;DHT22;11740;51.168;4.112;2023-10-08T00:49:32;15.60;1.00
23143;DHT22;11740;51.168;4.112;2023-10-08T00:52:09;15.60;1.00
23143;DHT22;11740;51.168;4.112;2023-10-08T00:54:38;15.60;1.00
23143;DHT22;11740;51.168;4.112;2023-10-08T00:57:20;15.60;1.00
23143;DHT22;11740;51.168;4.112;2023-10-08T00:59:48;15.70;1.00
23143;DHT22;11740;51.168;4.112;2023-10-08T01:02:26;15.50;1.00
23143;DHT22;11740;51.168;4.112;2023-10-08T01:04:55;15.50;1.00
23143;DHT22;11740;51.168;4.112;2023-10-08T01:07:23;15.50;1.00
23143;DHT22;11740;51.168;4.112;2023-10-08T01:09:51;15.50;1.00
23143;DHT22;11740;51.168;4.112;2023-10-08T01:12:25;15.40;1.00
23143;DHT22;11740;51.168;4.112;2023-10-08T01:15:03;15.40;1.00
23143;DHT22;11740;51.168;4.112;2023-10-08T01:17:56;15.40;1.00
23143;DHT22;11740;51.168;4.112;2023-10-08T01:20:27;15.40;1.00
23143;DHT22;11740;51.168;4.112;2023-10-08T01:23:07;15.30;1.00
23143;DHT22;11740;51.168;4.112;2023-10-08T01:25:43;15.30;30.40
23143;DHT22;11740;51.168;4.112;2023-10-08T01:28:28;15.20;99.90
23143;DHT22;11740;51.168;4.112;2023-10-08T01:30:59;15.10;99.90
23143;DHT22;11740;51.168;4.112;2023-10-08T01:33:27;15.20;99.90
23143;DHT22;11740;51.168;4.112;2023-10-08T01:35:55;15.10;99.90
23143;DHT22;11740;51.168;4.112;2023-10-08T01:38:30;15.00;99.90
23143;DHT22;11740;51.168;4.112;2023-10-08T01:40:57;15.00;99.90
23143;DHT22;11740;51.168;4.112;2023-10-08T01:43:30;15.00;99.90
23143;DHT22;11740;51.168;4.112;2023-10-08T01:45:56;15.10;99.90
23143;DHT22;11740;51.168;4.112;2023-10-08T01:48:23;15.00;99.90
23143;DHT22;11740;51.168;4.112;2023-10-08T01:51:03;15.00;99.90
23143;DHT22;11740;51.168;4.112;2023-10-08T01:53:36;14.90;1.00
23143;DHT22;11740;51.168;4.112;2023-10-08T01:56:05;15.00;1.00
23143;DHT22;11740;51.168;4.112;2023-10-08T01:58:32;14.90;1.00
23143;DHT22;11740;51.168;4.112;2023-10-08T02:01:02;15.00;1.00
23143;DHT22;11740;51.168;4.112;2023-10-08T02:03:32;14.90;1.00
23143;DHT22;11740;51.168;4.112;2023-10-08T02:05:59;14.90;1.00
23143;DHT22;11740;51.168;4.112;2023-10-08T02:08:26;14.80;1.00
23143;DHT22;11740;51.168;4.112;2023-10-08T02:10:54;14.80;1.00
23143;DHT22;11740;51.168;4.112;2023-10-08T02:13:20;14.80;1.00
23143;DHT22;11740;51.168;4.112;2023-10-08T02:15:51;14.80;18.00
23143;DHT22;11740;51.168;4.112;2023-10-08T02:18:19;14.80;1.00
23143;DHT22;11740;51.168;4.112;2023-10-08T02:20:47;14.80;67.40
23143;DHT22;11740;51.168;4.112;2023-10-08T02:23:15;14.80;26.80
23143;DHT22;11740;51.168;4.112;2023-10-08T02:25:42;14.80;99.90
23143;DHT22;11740;51.168;4.112;2023-10-08T02:28:09;14.80;59.40
23143;DHT22;11740;51.168;4.112;2023-10-08T02:30:39;14.90;1.00
23143;DHT22;11740;51.168;4.112;2023-10-08T02:33:06;14.80;99.90
23143;DHT22;11740;51.168;4.112;2023-10-08T02:35:44;14.70;99.90
23143;DHT22;11740;51.168;4.112;2023-10-08T02:38:16;14.80;99.90
23143;DHT22;11740;51.168;4.112;2023-10-08T02:40:44;14.70;99.90
23143;DHT22;11740;51.168;4.112;2023-10-08T02:43:14;14.70;99.90
23143;DHT22;11740;51.168;4.112;2023-10-08T02:45:43;14.70;99.90
23143;DHT22;11740;51.168;4.112;2023-10-08T02:48:15;14.80;99.90
23143;DHT22;11740;51.168;4.112;2023-10-08T02:50:43;14.70;99.90
23143;DHT22;11740;51.168;4.112;2023-10-08T02:53:14;14.70;99.90
23143;DHT22;11740;51.168;4.112;2023-10-08T02:55:50;14.70;1.00
23143;DHT22;11740;51.168;4.112;2023-10-08T02:58:17;14.70;1.00
23143;DHT22;11740;51.168;4.112;2023-10-08T03:00:48;14.70;99.90
23143;DHT22;11740;51.168;4.112;2023-10-08T03:03:17;14.70;1.00
23143;DHT22;11740;51.168;4.112;2023-10-08T03:05:51;14.60;1.00
23143;DHT22;11740;51.168;4.112;2023-10-08T03:08:19;14.60;1.00
23143;DHT22;11740;51.168;4.112;2023-10-08T03:10:49;14.60;99.90
23143;DHT22;11740;51.168;4.112;2023-10-08T03:13:22;14.60;1.00
23143;DHT22;11740;51.168;4.112;2023-10-08T03:15:50;14.60;99.90
23143;DHT22;11740;51.168;4.112;2023-10-08T03:18:30;14.60;1.00
23143;DHT22;11740;51.168;4.112;2023-10-08T03:21:06;14.60;1.00
23143;DHT22;11740;51.168;4.112;2023-10-08T03:23:50;14.60;41.60
23143;DHT22;11740;51.168;4.112;2023-10-08T03:26:19;14.50;1.00
23143;DHT22;11740;51.168;4.112;2023-10-08T03:29:00;14.60;1.00
23143;DHT22;11740;51.168;4.112;2023-10-08T03:31:33;14.50;1.00
23143;DHT22;11740;51.168;4.112;2023-10-08T03:34:19;14.50;1.00
23143;DHT22;11740;51.168;4.112;2023-10-08T03:36:47;14.50;1.00
23143;DHT22;11740;51.168;4.112;2023-10-08T03:39:17;14.50;1.00
23143;DHT22;11740;51.168;4.112;2023-10-08T03:41:46;14.50;1.00
23143;DHT22;11740;51.168;4.112;2023-10-08T03:44:33;14.40;99.90
23143;DHT22;11740;51.168;4.112;2023-10-08T03:47:04;14.40;99.90
23143;DHT22;11740;51.168;4.112;2023-10-08T03:49:38;14.50;99.90
23143;DHT22;11740;51.168;4.112;2023-10-08T03:52:12;14.50;1.00
23143;DHT22;11740;51.168;4.112;2023-10-08T03:54:42;14.40;99.90
23143;DHT22;11740;51.168;4.112;2023-10-08T03:57:15;14.40;99.90
23143;DHT22;11740;51.168;4.112;2023-10-08T03:59:55;14.30;99.90
23143;DHT22;11740;51.168;4.112;2023-10-08T04:02:26;14.30;1.00
23143;DHT22;11740;51.168;4.112;2023-10-08T04:05:13;14.30;99.90
23143;DHT22;11740;51.168;4.112;2023-10-08T04:07:47;14.30;99.90
23143;DHT22;11740;51.168;4.112;2023-10-08T04:10:35;14.30;99.90
23143;DHT22;11740;51.168;4.112;2023-10-08T04:13:05;14.30;99.90
23143;DHT22;11740;51.168;4.112;2023-10-08T04:15:42;14.20;1.00
23143;DHT22;11740;51.168;4.112;2023-10-08T04:18:11;14.20;1.00
23143;DHT22;11740;51.168;4.112;2023-10-08T04:20:40;14.20;1.00
23143;DHT22;11740;51.168;4.112;2023-10-08T04:23:27;14.10;1.00
23143;DHT22;11740;51.168;4.112;2023-10-08T04:25:57;14.10;1.00
23143;DHT22;11740;51.168;4.112;2023-10-08T04:28:25;14.10;1.00
23143;DHT22;11740;51.168;4.112;2023-10-08T04:30:55;14.10;1.00
23143;DHT22;11740;51.168;4.112;2023-10-08T04:33:28;14.10;99.90
23143;DHT22;11740;51.168;4.112;2023-10-08T04:36:01;14.10;1.00
23143;DHT22;11740;51.168;4.112;2023-10-08T04:38:28;14.10;1.00
23143;DHT22;11740;51.168;4.112;2023-10-08T04:40:56;14.10;1.00
23143;DHT22;11740;51.168;4.112;2023-10-08T04:43:29;14.00;89.00
23143;DHT22;11740;51.168;4.112;2023-10-08T04:46:00;14.00;58.80
23143;DHT22;11740;51.168;4.112;2023-10-08T04:48:46;14.00;1.00
23143;DHT22;11740;51.168;4.112;2023-10-08T04:51:16;14.00;87.10
23143;DHT22;11740;51.168;4.112;2023-10-08T04:53:44;14.00;20.30
23143;DHT22;11740;51.168;4.112;2023-10-08T04:56:15;13.90;99.90
23143;DHT22;11740;51.168;4.112;2023-10-08T04:58:46;14.00;99.90
23143;DHT22;11740;51.168;4.112;2023-10-08T05:01:14;14.00;65.20
23143;DHT22;11740;51.168;4.112;2023-10-08T05:03:52;13.90;99.90
23143;DHT22;11740;51.168;4.112;2023-10-08T05:06:23;13.90;28.00
23143;DHT22;11740;51.168;4.112;2023-10-08T05:11:48;13.90;1.00
23143;DHT22;11740;51.168;4.112;2023-10-08T05:14:25;14.00;1.00
23143;DHT22;11740;51.168;4.112;2023-10-08T05:17:10;13.90;1.00
23143;DHT22;11740;51.168;4.112;2023-10-08T05:19:39;13.90;99.90
23143;DHT22;11740;51.168;4.112;2023-10-08T05:22:08;14.00;1.00
23143;DHT22;11740;51.168;4.112;2023-10-08T05:24:46;14.00;99.90
23143;DHT22;11740;51.168;4.112;2023-10-08T05:27:35;13.90;99.90
23143;DHT22;11740;51.168;4.112;2023-10-08T05:30:23;13.90;25.70
23143;DHT22;11740;51.168;4.112;2023-10-08T05:33:05;13.90;99.90
23143;DHT22;11740;51.168;4.112;2023-10-08T05:35:40;13.90;99.90
23143;DHT22;11740;51.168;4.112;2023-10-08T05:38:09;13.90;99.90
23143;DHT22;11740;51.168;4.112;2023-10-08T05:40:52;13.90;1.00
23143;DHT22;11740;51.168;4.112;2023-10-08T05:43:36;13.90;1.00
23143;DHT22;11740;51.168;4.112;2023-10-08T05:46:08;13.90;34.20
23143;DHT22;11740;51.168;4.112;2023-10-08T05:48:53;13.90;1.00
23143;DHT22;11740;51.168;4.112;2023-10-08T05:51:30;13.80;1.00
23143;DHT22;11740;51.168;4.112;2023-10-08T05:54:23;13.80;99.90
23143;DHT22;11740;51.168;4.112;2023-10-08T05:57:07;13.80;99.90
23143;DHT22;11740;51.168;4.112;2023-10-08T05:59:43;13.80;1.00
23143;DHT22;11740;51.168;4.112;2023-10-08T06:02:28;13.80;1.00
23143;DHT22;11740;51.168;4.112;2023-10-08T06:05:05;13.80;1.00
23143;DHT22;11740;51.168;4.112;2023-10-08T06:07:44;13.80;99.90
23143;DHT22;11740;51.168;4.112;2023-10-08T06:10:15;13.80;1.00
23143;DHT22;11740;51.168;4.112;2023-10-08T06:13:09;13.70;99.90
23143;DHT22;11740;51.168;4.112;2023-10-08T06:15:57;13.80;87.20
23143;DHT22;11740;51.168;4.112;2023-10-08T06:18:26;13.80;1.00
23143;DHT22;11740;51.168;4.112;2023-10-08T06:20:56;13.80;1.00
23143;DHT22;11740;51.168;4.112;2023-10-08T06:23:29;13.80;1.00
23143;DHT22;11740;51.168;4.112;2023-10-08T06:26:02;13.80;1.00
23143;DHT22;11740;51.168;4.112;2023-10-08T06:28:44;13.80;1.00
23143;DHT22;11740;51.168;4.112;2023-10-08T06:31:12;13.80;1.00
23143;DHT22;11740;51.168;4.112;2023-10-08T06:33:44;13.80;22.60
23143;DHT22;11740;51.168;4.112;2023-10-08T06:36:11;13.80;11.70
23143;DHT22;11740;51.168;4.112;2023-10-08T06:38:40;13.80;1.00
23143;DHT22;11740;51.168;4.112;2023-10-08T06:41:15;13.80;1.00
23143;DHT22;11740;51.168;4.112;2023-10-08T06:44:05;13.80;31.00
23143;DHT22;11740;51.168;4.112;2023-10-08T06:46:32;13.80;99.10
23143;DHT22;11740;51.168;4.112;2023-10-08T06:49:07;13.90;99.90
23143;DHT22;11740;51.168;4.112;2023-10-08T06:51:40;13.90;99.90
23143;DHT22;11740;51.168;4.112;2023-10-08T06:54:11;13.90;99.90
23143;DHT22;11740;51.168;4.112;2023-10-08T06:56:44;13.90;1.00
23143;DHT22;11740;51.168;4.112;2023-10-08T06:59:19;13.90;1.00
23143;DHT22;11740;51.168;4.112;2023-10-08T07:01:50;14.00;1.00
23143;DHT22;11740;51.168;4.112;2023-10-08T07:04:19;14.00;1.00
23143;DHT22;11740;51.168;4.112;2023-10-08T07:06:49;14.00;1.00
23143;DHT22;11740;51.168;4.112;2023-10-08T07:09:17;14.00;1.00
23143;DHT22;11740;51.168;4.112;2023-10-08T07:12:11;14.10;1.00
23143;DHT22;11740;51.168;4.112;2023-10-08T07:14:41;14.10;1.00
23143;DHT22;11740;51.168;4.112;2023-10-08T07:17:08;14.10;1.00
23143;DHT22;11740;51.168;4.112;2023-10-08T07:19:38;14.20;1.00
23143;DHT22;11740;51.168;4.112;2023-10-08T07:22:08;14.20;1.00
23143;DHT22;11740;51.168;4.112;2023-10-08T07:24:49;14.20;99.90
23143;DHT22;11740;51.168;4.112;2023-10-08T07:27:19;14.30;1.00
23143;DHT22;11740;51.168;4.112;2023-10-08T07:29:51;14.30;81.70
23143;DHT22;11740;51.168;4.112;2023-10-08T07:32:23;14.40;1.00
23143;DHT22;11740;51.168;4.112;2023-10-08T07:34:53;14.30;1.00
23143;DHT22;11740;51.168;4.112;2023-10-08T07:37:25;14.40;1.00
23143;DHT22;11740;51.168;4.112;2023-10-08T07:39:53;14.40;99.90
23143;DHT22;11740;51.168;4.112;2023-10-08T07:42:22;14.40;99.90
23143;DHT22;11740;51.168;4.112;2023-10-08T07:44:49;14.50;70.50
23143;DHT22;11740;51.168;4.112;2023-10-08T07:47:21;14.60;1.00
23143;DHT22;11740;51.168;4.112;2023-10-08T07:49:48;14.60;99.90
23143;DHT22;11740;51.168;4.112;2023-10-08T07:52:18;14.70;99.90
23143;DHT22;11740;51.168;4.112;2023-10-08T07:54:45;14.70;99.90
23143;DHT22;11740;51.168;4.112;2023-10-08T07:57:12;14.80;99.90
23143;DHT22;11740;51.168;4.112;2023-10-08T07:59:44;14.80;99.90
23143;DHT22;11740;51.168;4.112;2023-10-08T08:02:16;14.90;99.90
23143;DHT22;11740;51.168;4.112;2023-10-08T08:04:45;14.90;99.90
23143;DHT22;11740;51.168;4.112;2023-10-08T08:07:18;14.90;99.90
23143;DHT22;11740;51.168;4.112;2023-10-08T08:09:51;15.00;99.90
23143;DHT22;11740;51.168;4.112;2023-10-08T08:12:27;15.00;99.90
23143;DHT22;11740;51.168;4.112;2023-10-08T08:14:59;15.10;99.90
23143;DHT22;11740;51.168;4.112;2023-10-08T08:17:30;15.10;99.90
23143;DHT22;11740;51.168;4.112;2023-10-08T08:19:58;15.10;1.00
23143;DHT22;11740;51.168;4.112;2023-10-08T08:22:25;15.20;99.90
23143;DHT22;11740;51.168;4.112;2023-10-08T08:24:59;15.20;99.90
23143;DHT22;11740;51.168;4.112;2023-10-08T08:27:43;15.40;99.90
23143;DHT22;11740;51.168;4.112;2023-10-08T08:30:13;15.50;99.90
23143;DHT22;11740;51.168;4.112;2023-10-08T08:32:45;15.50;99.90
23143;DHT22;11740;51.168;4.112;2023-10-08T08:35:19;15.60;99.90
23143;DHT22;11740;51.168;4.112;2023-10-08T08:37:47;15.60;99.90
23143;DHT22;11740;51.168;4.112;2023-10-08T08:40:18;15.70;99.90
23143;DHT22;11740;51.168;4.112;2023-10-08T08:42:48;15.70;99.90
23143;DHT22;11740;51.168;4.112;2023-10-08T08:45:24;15.70;99.90
23143;DHT22;11740;51.168;4.112;2023-10-08T08:47:52;15.70;99.90
23143;DHT22;11740;51.168;4.112;2023-10-08T08:50:20;15.70;99.90
23143;DHT22;11740;51.168;4.112;2023-10-08T08:52:48;15.80;99.90
23143;DHT22;11740;51.168;4.112;2023-10-08T08:55:15;15.80;99.90
23143;DHT22;11740;51.168;4.112;2023-10-08T08:57:47;15.80;99.90
23143;DHT22;11740;51.168;4.112;2023-10-08T09:00:17;15.90;99.90
23143;DHT22;11740;51.168;4.112;2023-10-08T09:02:46;16.00;99.90
23143;DHT22;11740;51.168;4.112;2023-10-08T09:05:15;16.00;99.90
23143;DHT22;11740;51.168;4.112;2023-10-08T09:07:56;16.00;99.90
23143;DHT22;11740;51.168;4.112;2023-10-08T09:10:26;16.10;99.90
23143;DHT22;11740;51.168;4.112;2023-10-08T09:12:56;16.20;99.90
23143;DHT22;11740;51.168;4.112;2023-10-08T09:15:26;16.30;1.00
23143;DHT22;11740;51.168;4.112;2023-10-08T09:17:57;16.30;99.90
23143;DHT22;11740;51.168;4.112;2023-10-08T09:20:28;16.40;99.90
23143;DHT22;11740;51.168;4.112;2023-10-08T09:23:09;16.40;99.90
23143;DHT22;11740;51.168;4.112;2023-10-08T09:25:42;16.40;99.90
23143;DHT22;11740;51.168;4.112;2023-10-08T09:28:11;16.40;24.10
23143;DHT22;11740;51.168;4.112;2023-10-08T09:30:42;16.40;1.00
23143;DHT22;11740;51.168;4.112;2023-10-08T09:33:13;16.50;99.90
23143;DHT22;11740;51.168;4.112;2023-10-08T09:35:42;16.60;99.90
23143;DHT22;11740;51.168;4.112;2023-10-08T09:38:12;16.70;99.90
23143;DHT22;11740;51.168;4.112;2023-10-08T09:40:40;16.80;99.90
23143;DHT22;11740;51.168;4.112;2023-10-08T09:43:11;16.80;99.90
23143;DHT22;11740;51.168;4.112;2023-10-08T09:45:43;16.90;99.90
23143;DHT22;11740;51.168;4.112;2023-10-08T09:48:16;17.00;99.90
23143;DHT22;11740;51.168;4.112;2023-10-08T09:50:47;17.20;99.90
23143;DHT22;11740;51.168;4.112;2023-10-08T09:53:15;17.20;99.90
23143;DHT22;11740;51.168;4.112;2023-10-08T09:55:54;17.30;99.90
23143;DHT22;11740;51.168;4.112;2023-10-08T09:58:22;17.30;99.90
23143;DHT22;11740;51.168;4.112;2023-10-08T10:00:52;17.40;99.90
23143;DHT22;11740;51.168;4.112;2023-10-08T10:03:25;17.40;1.00
23143;DHT22;11740;51.168;4.112;2023-10-08T10:05:53;17.40;99.90
23143;DHT22;11740;51.168;4.112;2023-10-08T10:08:25;17.60;1.00
23143;DHT22;11740;51.168;4.112;2023-10-08T10:11:00;17.60;1.00
23143;DHT22;11740;51.168;4.112;2023-10-08T10:13:39;17.70;44.20
23143;DHT22;11740;51.168;4.112;2023-10-08T10:16:10;17.80;72.50
23143;DHT22;11740;51.168;4.112;2023-10-08T10:18:44;17.90;1.00
23143;DHT22;11740;51.168;4.112;2023-10-08T10:23:43;18.00;1.00
23143;DHT22;11740;51.168;4.112;2023-10-08T10:31:38;18.10;1.00
23143;DHT22;11740;51.168;4.112;2023-10-08T10:34:07;18.20;99.90
23143;DHT22;11740;51.168;4.112;2023-10-08T10:36:39;18.40;99.90
23143;DHT22;11740;51.168;4.112;2023-10-08T10:39:08;18.50;99.90
23143;DHT22;11740;51.168;4.112;2023-10-08T10:41:47;18.70;1.00
23143;DHT22;11740;51.168;4.112;2023-10-08T10:44:16;18.70;11.00
23143;DHT22;11740;51.168;4.112;2023-10-08T10:46:45;18.80;1.00
23143;DHT22;11740;51.168;4.112;2023-10-08T10:49:24;18.80;1.00
23143;DHT22;11740;51.168;4.112;2023-10-08T10:51:58;18.90;1.00
23143;DHT22;11740;51.168;4.112;2023-10-08T10:54:25;19.00;99.90
23143;DHT22;11740;51.168;4.112;2023-10-08T10:56:53;19.10;99.90
23143;DHT22;11740;51.168;4.112;2023-10-08T10:59:36;19.10;99.90
23143;DHT22;11740;51.168;4.112;2023-10-08T11:02:09;19.10;99.90
23143;DHT22;11740;51.168;4.112;2023-10-08T11:04:48;19.30;1.00
23143;DHT22;11740;51.168;4.112;2023-10-08T11:07:20;19.30;9.50
23143;DHT22;11740;51.168;4.112;2023-10-08T11:09:48;19.40;1.00
23143;DHT22;11740;51.168;4.112;2023-10-08T11:12:15;19.40;7.40
23143;DHT22;11740;51.168;4.112;2023-10-08T11:14:50;19.50;1.00
23143;DHT22;11740;51.168;4.112;2023-10-08T11:17:25;19.40;1.00
23143;DHT22;11740;51.168;4.112;2023-10-08T11:19:53;19.50;5.70
23143;DHT22;11740;51.168;4.112;2023-10-08T11:22:20;19.60;1.00
23143;DHT22;11740;51.168;4.112;2023-10-08T11:24:50;19.70;99.90
23143;DHT22;11740;51.168;4.112;2023-10-08T11:27:23;19.80;1.00
23143;DHT22;11740;51.168;4.112;2023-10-08T11:30:02;19.90;1.00
23143;DHT22;11740;51.168;4.112;2023-10-08T11:32:38;20.00;99.90
23143;DHT22;11740;51.168;4.112;2023-10-08T11:35:06;20.10;99.90
23143;DHT22;11740;51.168;4.112;2023-10-08T11:37:47;20.30;99.90
23143;DHT22;11740;51.168;4.112;2023-10-08T11:40:24;20.30;99.90
23143;DHT22;11740;51.168;4.112;2023-10-08T11:42:57;20.30;99.90
23143;DHT22;11740;51.168;4.112;2023-10-08T11:45:26;20.30;99.90
23143;DHT22;11740;51.168;4.112;2023-10-08T11:47:54;20.50;99.90
23143;DHT22;11740;51.168;4.112;2023-10-08T11:50:30;20.60;1.00
23143;DHT22;11740;51.168;4.112;2023-10-08T11:53:01;20.60;1.00
23143;DHT22;11740;51.168;4.112;2023-10-08T11:55:36;20.70;1.00
23143;DHT22;11740;51.168;4.112;2023-10-08T11:58:04;20.70;1.00
23143;DHT22;11740;51.168;4.112;2023-10-08T12:00:42;20.80;1.00
23143;DHT22;11740;51.168;4.112;2023-10-08T12:03:18;21.00;1.00
23143;DHT22;11740;51.168;4.112;2023-10-08T12:05:51;21.10;1.00
23143;DHT22;11740;51.168;4.112;2023-10-08T12:08:27;21.20;1.00
23143;DHT22;11740;51.168;4.112;2023-10-08T12:10:54;21.30;99.90
23143;DHT22;11740;51.168;4.112;2023-10-08T12:13:22;21.40;99.90
23143;DHT22;11740;51.168;4.112;2023-10-08T12:15:55;21.50;99.90
23143;DHT22;11740;51.168;4.112;2023-10-08T12:18:39;21.50;99.90
23143;DHT22;11740;51.168;4.112;2023-10-08T12:21:07;21.50;82.00
23143;DHT22;11740;51.168;4.112;2023-10-08T12:23:39;21.60;1.00
23143;DHT22;11740;51.168;4.112;2023-10-08T12:26:07;21.70;1.00
23143;DHT22;11740;51.168;4.112;2023-10-08T12:28:36;21.80;1.00
23143;DHT22;11740;51.168;4.112;2023-10-08T12:31:03;21.90;1.00
23143;DHT22;11740;51.168;4.112;2023-10-08T12:33:31;22.00;1.00
23143;DHT22;11740;51.168;4.112;2023-10-08T12:35:58;22.10;1.00
23143;DHT22;11740;51.168;4.112;2023-10-08T12:38:42;22.20;1.00
23143;DHT22;11740;51.168;4.112;2023-10-08T12:41:13;22.30;1.00
23143;DHT22;11740;51.168;4.112;2023-10-08T12:43:43;22.40;1.00
23143;DHT22;11740;51.168;4.112;2023-10-08T12:46:13;22.50;99.90
23143;DHT22;11740;51.168;4.112;2023-10-08T12:48:45;22.70;99.90
23143;DHT22;11740;51.168;4.112;2023-10-08T12:51:15;22.70;1.00
23143;DHT22;11740;51.168;4.112;2023-10-08T12:53:42;22.80;99.90
23143;DHT22;11740;51.168;4.112;2023-10-08T12:56:17;22.90;99.90
23143;DHT22;11740;51.168;4.112;2023-10-08T12:58:48;23.10;99.90
23143;DHT22;11740;51.168;4.112;2023-10-08T13:01:18;23.10;99.90
23143;DHT22;11740;51.168;4.112;2023-10-08T13:03:46;23.20;99.90
23143;DHT22;11740;51.168;4.112;2023-10-08T13:06:19;23.30;99.90
23143;DHT22;11740;51.168;4.112;2023-10-08T13:08:57;23.30;99.90
23143;DHT22;11740;51.168;4.112;2023-10-08T13:11:26;23.40;99.90
23143;DHT22;11740;51.168;4.112;2023-10-08T13:13:57;23.50;99.90
23143;DHT22;11740;51.168;4.112;2023-10-08T13:16:26;23.70;99.90
23143;DHT22;11740;51.168;4.112;2023-10-08T13:19:04;23.70;99.90
23143;DHT22;11740;51.168;4.112;2023-10-08T13:21:31;23.60;99.90
23143;DHT22;11740;51.168;4.112;2023-10-08T13:23:59;23.80;99.90
23143;DHT22;11740;51.168;4.112;2023-10-08T13:26:27;24.00;99.90
23143;DHT22;11740;51.168;4.112;2023-10-08T13:28:58;24.10;99.90
23143;DHT22;11740;51.168;4.112;2023-10-08T13:31:26;24.30;99.90
23143;DHT22;11740;51.168;4.112;2023-10-08T13:33:54;24.40;59.10
23143;DHT22;11740;51.168;4.112;2023-10-08T13:36:24;24.60;70.50
23143;DHT22;11740;51.168;4.112;2023-10-08T13:38:51;24.80;38.20
23143;DHT22;11740;51.168;4.112;2023-10-08T13:41:18;25.00;42.30
23143;DHT22;11740;51.168;4.112;2023-10-08T13:43:47;25.10;1.00
23143;DHT22;11740;51.168;4.112;2023-10-08T13:46:19;25.10;1.00
23143;DHT22;11740;51.168;4.112;2023-10-08T13:48:50;25.10;1.00
23143;DHT22;11740;51.168;4.112;2023-10-08T13:51:21;25.30;1.00
23143;DHT22;11740;51.168;4.112;2023-10-08T13:53:54;25.50;1.00
23143;DHT22;11740;51.168;4.112;2023-10-08T13:56:27;25.50;1.00
23143;DHT22;11740;51.168;4.112;2023-10-08T13:58:59;25.60;1.00
23143;DHT22;11740;51.168;4.112;2023-10-08T14:01:43;25.70;1.00
23143;DHT22;11740;51.168;4.112;2023-10-08T14:04:14;25.80;1.00
23143;DHT22;11740;51.168;4.112;2023-10-08T14:06:47;25.90;1.00
23143;DHT22;11740;51.168;4.112;2023-10-08T14:09:19;26.20;1.00
23143;DHT22;11740;51.168;4.112;2023-10-08T14:11:59;26.30;1.00
23143;DHT22;11740;51.168;4.112;2023-10-08T14:14:28;26.40;1.00
23143;DHT22;11740;51.168;4.112;2023-10-08T14:17:01;26.50;1.00
23143;DHT22;11740;51.168;4.112;2023-10-08T14:19:37;26.60;1.00
23143;DHT22;11740;51.168;4.112;2023-10-08T14:22:13;26.70;1.00
23143;DHT22;11740;51.168;4.112;2023-10-08T14:24:42;26.70;1.00
23143;DHT22;11740;51.168;4.112;2023-10-08T14:27:12;26.90;1.00
23143;DHT22;11740;51.168;4.112;2023-10-08T14:29:43;27.10;1.00
23143;DHT22;11740;51.168;4.112;2023-10-08T14:32:18;27.00;1.00
23143;DHT22;11740;51.168;4.112;2023-10-08T14:34:47;27.20;1.00
23143;DHT22;11740;51.168;4.112;2023-10-08T14:37:14;26.90;1.00
23143;DHT22;11740;51.168;4.112;2023-10-08T14:40:00;26.70;1.00
23143;DHT22;11740;51.168;4.112;2023-10-08T14:42:46;26.50;1.00
23143;DHT22;11740;51.168;4.112;2023-10-08T14:45:26;26.60;1.00
23143;DHT22;11740;51.168;4.112;2023-10-08T14:48:03;26.80;1.00
23143;DHT22;11740;51.168;4.112;2023-10-08T14:50:34;26.90;1.00
23143;DHT22;11740;51.168;4.112;2023-10-08T14:53:01;27.00;1.00
23143;DHT22;11740;51.168;4.112;2023-10-08T14:55:33;27.20;1.00
23143;DHT22;11740;51.168;4.112;2023-10-08T14:58:04;27.20;1.00
23143;DHT22;11740;51.168;4.112;2023-10-08T15:00:37;27.30;1.00
23143;DHT22;11740;51.168;4.112;2023-10-08T15:03:06;27.40;1.00
23143;DHT22;11740;51.168;4.112;2023-10-08T15:05:33;27.50;1.00
23143;DHT22;11740;51.168;4.112;2023-10-08T15:08:04;27.70;1.00
23143;DHT22;11740;51.168;4.112;2023-10-08T15:10:37;27.60;1.00
23143;DHT22;11740;51.168;4.112;2023-10-08T15:13:04;27.70;1.00
23143;DHT22;11740;51.168;4.112;2023-10-08T15:15:31;27.80;1.00
23143;DHT22;11740;51.168;4.112;2023-10-08T15:18:01;27.80;1.00
23143;DHT22;11740;51.168;4.112;2023-10-08T15:20:39;28.00;1.00
23143;DHT22;11740;51.168;4.112;2023-10-08T15:23:08;28.00;1.00
23143;DHT22;11740;51.168;4.112;2023-10-08T15:25:39;28.10;1.00
23143;DHT22;11740;51.168;4.112;2023-10-08T15:28:06;27.80;1.00
23143;DHT22;11740;51.168;4.112;2023-10-08T15:30:34;27.80;1.00
23143;DHT22;11740;51.168;4.112;2023-10-08T15:33:01;27.80;1.00
23143;DHT22;11740;51.168;4.112;2023-10-08T15:35:29;27.80;1.00
23143;DHT22;11740;51.168;4.112;2023-10-08T15:37:56;27.90;1.00
23143;DHT22;11740;51.168;4.112;2023-10-08T15:40:23;28.20;1.00
23143;DHT22;11740;51.168;4.112;2023-10-08T15:42:53;28.20;1.00
23143;DHT22;11740;51.168;4.112;2023-10-08T15:45:23;28.20;1.00
23143;DHT22;11740;51.168;4.112;2023-10-08T15:47:52;28.00;1.00
23143;DHT22;11740;51.168;4.112;2023-10-08T15:50:20;28.00;1.00
23143;DHT22;11740;51.168;4.112;2023-10-08T15:52:49;27.90;1.00
23143;DHT22;11740;51.168;4.112;2023-10-08T15:55:17;27.80;1.00
23143;DHT22;11740;51.168;4.112;2023-10-08T15:57:46;27.80;1.00
23143;DHT22;11740;51.168;4.112;2023-10-08T16:00:13;27.80;1.00
23143;DHT22;11740;51.168;4.112;2023-10-08T16:02:41;27.70;1.00
23143;DHT22;11740;51.168;4.112;2023-10-08T16:05:11;27.70;1.00
23143;DHT22;11740;51.168;4.112;2023-10-08T16:07:39;27.70;1.00
23143;DHT22;11740;51.168;4.112;2023-10-08T16:10:06;27.70;1.00
23143;DHT22;11740;51.168;4.112;2023-10-08T16:12:34;27.80;1.00
23143;DHT22;11740;51.168;4.112;2023-10-08T16:15:03;27.70;1.00
23143;DHT22;11740;51.168;4.112;2023-10-08T16:17:32;27.60;1.00
23143;DHT22;11740;51.168;4.112;2023-10-08T16:19:59;27.50;1.00
23143;DHT22;11740;51.168;4.112;2023-10-08T16:22:36;27.50;1.00